EJU41VN EGKK-LFPG
Flight info
| Callsign | EJU41VN |
|---|---|
| Flight time | 0h 35m |
| Altitude | 23000 |
| Route | SFD M605 HARDY/N0400F250 UM605 BIBAX |
| Aircraft | A319/M-SDE3FGHIRWY/LB1 |
Departure
| Time | 2026-05-04 22:08 |
|---|---|
| Airport | London Gatwick Airport (EGKK) |
Arrival
| Time | 2026-05-04 22:43 |
|---|---|
| Airport | Charles de Gaulle International Airport (LFPG) |
| Time | Latitude | Longitude | Altitude | Speed | Heading |
|---|---|---|---|---|---|
| 2026-05-04 21:31 | 51.15659 | -0.17699 | 205 ft | 0 kts | 167° |
| 2026-05-04 21:47 | 51.15673 | -0.17704 | 217 ft | 4 kts | 165° |
| 2026-05-04 21:48 | 51.15699 | -0.17716 | 214 ft | 4 kts | 163° |
| 2026-05-04 21:48 | 51.15724 | -0.17724 | 214 ft | 4 kts | 192° |
| 2026-05-04 21:48 | 51.15735 | -0.17717 | 210 ft | 0 kts | 240° |
| 2026-05-04 21:51 | 51.15735 | -0.17718 | 210 ft | 1 kts | 241° |
| 2026-05-04 21:52 | 51.15730 | -0.17738 | 217 ft | 3 kts | 253° |
| 2026-05-04 21:52 | 51.15725 | -0.17780 | 212 ft | 5 kts | 258° |
| 2026-05-04 21:52 | 51.15717 | -0.17841 | 211 ft | 5 kts | 259° |
| 2026-05-04 21:52 | 51.15716 | -0.17854 | 208 ft | 0 kts | 259° |
| 2026-05-04 21:53 | 51.15711 | -0.17888 | 214 ft | 5 kts | 259° |
| 2026-05-04 21:53 | 51.15703 | -0.17945 | 215 ft | 6 kts | 256° |
| 2026-05-04 21:54 | 51.15693 | -0.18013 | 205 ft | 7 kts | 257° |
| 2026-05-04 21:54 | 51.15682 | -0.18093 | 209 ft | 7 kts | 257° |
| 2026-05-04 21:54 | 51.15671 | -0.18172 | 211 ft | 8 kts | 257° |
| 2026-05-04 21:54 | 51.15659 | -0.18262 | 212 ft | 9 kts | 257° |
| 2026-05-04 21:55 | 51.15641 | -0.18345 | 210 ft | 7 kts | 229° |
| 2026-05-04 21:55 | 51.15591 | -0.18351 | 205 ft | 8 kts | 166° |
| 2026-05-04 21:55 | 51.15528 | -0.18329 | 205 ft | 11 kts | 168° |
| 2026-05-04 21:55 | 51.15453 | -0.18303 | 205 ft | 12 kts | 168° |
| 2026-05-04 21:56 | 51.15368 | -0.18274 | 212 ft | 13 kts | 167° |
| 2026-05-04 21:56 | 51.15285 | -0.18245 | 210 ft | 10 kts | 168° |
| 2026-05-04 21:56 | 51.15221 | -0.18225 | 208 ft | 9 kts | 173° |
| 2026-05-04 21:56 | 51.15188 | -0.18292 | 206 ft | 9 kts | 264° |
| 2026-05-04 21:57 | 51.15178 | -0.18397 | 205 ft | 10 kts | 258° |
| 2026-05-04 21:57 | 51.15161 | -0.18513 | 213 ft | 11 kts | 258° |
| 2026-05-04 21:57 | 51.15144 | -0.18640 | 205 ft | 12 kts | 257° |
| 2026-05-04 21:57 | 51.15125 | -0.18779 | 210 ft | 13 kts | 257° |
| 2026-05-04 21:58 | 51.15105 | -0.18928 | 205 ft | 14 kts | 257° |
| 2026-05-04 21:58 | 51.15083 | -0.19084 | 212 ft | 15 kts | 258° |
| 2026-05-04 21:58 | 51.15062 | -0.19249 | 205 ft | 16 kts | 258° |
| 2026-05-04 21:58 | 51.15037 | -0.19423 | 212 ft | 16 kts | 257° |
| 2026-05-04 21:59 | 51.15011 | -0.19605 | 214 ft | 17 kts | 257° |
| 2026-05-04 21:59 | 51.14985 | -0.19796 | 212 ft | 18 kts | 257° |
| 2026-05-04 21:59 | 51.14958 | -0.19997 | 205 ft | 19 kts | 257° |
| 2026-05-04 21:59 | 51.14927 | -0.20210 | 209 ft | 20 kts | 258° |
| 2026-05-04 22:00 | 51.14902 | -0.20400 | 209 ft | 16 kts | 257° |
| 2026-05-04 22:00 | 51.14877 | -0.20577 | 208 ft | 17 kts | 258° |
| 2026-05-04 22:00 | 51.14851 | -0.20763 | 208 ft | 18 kts | 258° |
| 2026-05-04 22:00 | 51.14825 | -0.20956 | 214 ft | 18 kts | 257° |
| 2026-05-04 22:01 | 51.14799 | -0.21140 | 208 ft | 15 kts | 254° |
| 2026-05-04 22:01 | 51.14770 | -0.21286 | 205 ft | 13 kts | 256° |
| 2026-05-04 22:01 | 51.14752 | -0.21382 | 213 ft | 6 kts | 238° |
| 2026-05-04 22:01 | 51.14715 | -0.21408 | 205 ft | 4 kts | 178° |
| 2026-05-04 22:02 | 51.14714 | -0.21408 | 205 ft | 0 kts | 176° |
| 2026-05-04 22:02 | 51.14713 | -0.21408 | 205 ft | 0 kts | 176° |
| 2026-05-04 22:04 | 51.14711 | -0.21407 | 205 ft | 2 kts | 176° |
| 2026-05-04 22:04 | 51.14690 | -0.21399 | 205 ft | 5 kts | 160° |
| 2026-05-04 22:04 | 51.14660 | -0.21360 | 210 ft | 6 kts | 134° |
| 2026-05-04 22:05 | 51.14631 | -0.21337 | 207 ft | 0 kts | 166° |
| 2026-05-04 22:06 | 51.14617 | -0.21331 | 208 ft | 5 kts | 166° |
| 2026-05-04 22:06 | 51.14568 | -0.21306 | 207 ft | 9 kts | 154° |
| 2026-05-04 22:06 | 51.14523 | -0.21228 | 213 ft | 10 kts | 114° |
| 2026-05-04 22:06 | 51.14522 | -0.21160 | 206 ft | 0 kts | 81° |
| 2026-05-04 22:07 | 51.14529 | -0.21103 | 211 ft | 23 kts | 79° |
| 2026-05-04 22:07 | 51.14626 | -0.20408 | 218 ft | 104 kts | 77° |
| 2026-05-04 22:07 | 51.14830 | -0.18933 | 300 ft | 157 kts | 77° |
| 2026-05-04 22:08 | 51.15070 | -0.17237 | 1013 ft | 160 kts | 77° |
| 2026-05-04 22:08 | 51.15313 | -0.15462 | 1707 ft | 171 kts | 77° |
| 2026-05-04 22:08 | 51.15611 | -0.13500 | 2198 ft | 195 kts | 76° |
| 2026-05-04 22:08 | 51.15936 | -0.11227 | 2677 ft | 223 kts | 77° |
| 2026-05-04 22:09 | 51.16245 | -0.08828 | 3709 ft | 224 kts | 80° |
| 2026-05-04 22:09 | 51.16062 | -0.06371 | 4700 ft | 231 kts | 116° |
| 2026-05-04 22:09 | 51.14902 | -0.04449 | 5310 ft | 259 kts | 152° |
| 2026-05-04 22:09 | 51.13135 | -0.03543 | 5858 ft | 274 kts | 168° |
| 2026-05-04 22:10 | 51.11243 | -0.03123 | 5987 ft | 275 kts | 174° |
| 2026-05-04 22:10 | 51.09334 | -0.02835 | 6008 ft | 276 kts | 174° |
| 2026-05-04 22:10 | 51.07405 | -0.02541 | 6724 ft | 279 kts | 173° |
| 2026-05-04 22:10 | 51.05505 | -0.01950 | 7821 ft | 280 kts | 165° |
| 2026-05-04 22:11 | 51.03620 | -0.01090 | 8902 ft | 283 kts | 162° |
| 2026-05-04 22:11 | 51.01736 | -0.00124 | 9946 ft | 287 kts | 161° |
| 2026-05-04 22:11 | 50.99832 | 0.00872 | 10885 ft | 290 kts | 161° |
| 2026-05-04 22:11 | 50.97898 | 0.01859 | 11846 ft | 293 kts | 161° |
| 2026-05-04 22:12 | 50.95940 | 0.02830 | 12798 ft | 296 kts | 161° |
| 2026-05-04 22:12 | 50.93954 | 0.03790 | 13728 ft | 300 kts | 161° |
| 2026-05-04 22:12 | 50.91940 | 0.04746 | 14535 ft | 304 kts | 162° |
| 2026-05-04 22:12 | 50.89904 | 0.05705 | 15359 ft | 307 kts | 162° |
| 2026-05-04 22:13 | 50.87872 | 0.06661 | 16179 ft | 310 kts | 162° |
| 2026-05-04 22:13 | 50.85793 | 0.07642 | 16946 ft | 315 kts | 162° |
| 2026-05-04 22:13 | 50.83680 | 0.08638 | 17734 ft | 319 kts | 162° |
| 2026-05-04 22:13 | 50.81541 | 0.09641 | 18516 ft | 323 kts | 162° |
| 2026-05-04 22:14 | 50.79376 | 0.10652 | 19233 ft | 325 kts | 163° |
| 2026-05-04 22:14 | 50.77214 | 0.11724 | 19960 ft | 327 kts | 158° |
| 2026-05-04 22:14 | 50.75175 | 0.13376 | 20516 ft | 336 kts | 147° |
| 2026-05-04 22:14 | 50.73270 | 0.15705 | 20663 ft | 356 kts | 141° |
| 2026-05-04 22:15 | 50.71326 | 0.18226 | 21099 ft | 366 kts | 141° |
| 2026-05-04 22:15 | 50.69344 | 0.20792 | 21715 ft | 371 kts | 141° |
| 2026-05-04 22:15 | 50.67335 | 0.23380 | 22382 ft | 374 kts | 142° |
| 2026-05-04 22:15 | 50.65310 | 0.25980 | 22885 ft | 377 kts | 142° |
| 2026-05-04 22:16 | 50.63268 | 0.28592 | 23017 ft | 378 kts | 141° |
| 2026-05-04 22:16 | 50.61226 | 0.31195 | 23027 ft | 378 kts | 142° |
| 2026-05-04 22:16 | 50.59870 | 0.32919 | 23034 ft | 378 kts | 142° |
| 2026-05-04 22:16 | 50.57830 | 0.35514 | 23024 ft | 377 kts | 142° |
| 2026-05-04 22:17 | 50.55787 | 0.38107 | 23023 ft | 377 kts | 142° |
| 2026-05-04 22:17 | 50.53741 | 0.40698 | 23023 ft | 377 kts | 142° |
| 2026-05-04 22:17 | 50.51696 | 0.43289 | 23022 ft | 378 kts | 142° |
| 2026-05-04 22:17 | 50.49654 | 0.45875 | 23017 ft | 377 kts | 142° |
| 2026-05-04 22:18 | 50.47608 | 0.48468 | 23028 ft | 378 kts | 142° |
| 2026-05-04 22:18 | 50.43458 | 0.53712 | 23031 ft | 377 kts | 142° |
| 2026-05-04 22:18 | 50.41410 | 0.56286 | 23026 ft | 377 kts | 142° |
| 2026-05-04 22:19 | 50.39374 | 0.58841 | 23011 ft | 374 kts | 142° |
| 2026-05-04 22:19 | 50.37338 | 0.61404 | 23011 ft | 376 kts | 142° |
| 2026-05-04 22:19 | 50.35303 | 0.63970 | 23009 ft | 375 kts | 142° |
| 2026-05-04 22:19 | 50.33263 | 0.66543 | 23023 ft | 378 kts | 142° |
| 2026-05-04 22:20 | 50.31216 | 0.69114 | 23005 ft | 378 kts | 142° |
| 2026-05-04 22:20 | 50.29170 | 0.71677 | 23015 ft | 375 kts | 142° |
| 2026-05-04 22:20 | 50.27137 | 0.74221 | 23010 ft | 374 kts | 142° |
| 2026-05-04 22:20 | 50.25100 | 0.76764 | 23017 ft | 377 kts | 142° |
| 2026-05-04 22:21 | 50.23041 | 0.79328 | 23000 ft | 379 kts | 142° |
| 2026-05-04 22:21 | 50.20982 | 0.81889 | 23010 ft | 379 kts | 142° |
| 2026-05-04 22:21 | 50.18922 | 0.84456 | 23018 ft | 379 kts | 142° |
| 2026-05-04 22:21 | 50.16869 | 0.87016 | 23006 ft | 376 kts | 142° |
| 2026-05-04 22:22 | 50.14812 | 0.89575 | 23021 ft | 378 kts | 142° |
| 2026-05-04 22:22 | 50.12757 | 0.92126 | 22992 ft | 379 kts | 142° |
| 2026-05-04 22:22 | 50.10696 | 0.94679 | 22998 ft | 377 kts | 142° |
| 2026-05-04 22:22 | 50.08650 | 0.97216 | 23000 ft | 377 kts | 142° |
| 2026-05-04 22:23 | 50.06579 | 0.99755 | 22996 ft | 378 kts | 144° |
| 2026-05-04 22:23 | 50.04337 | 1.01880 | 22989 ft | 377 kts | 154° |
| 2026-05-04 22:23 | 50.01978 | 1.03649 | 22991 ft | 377 kts | 155° |
| 2026-05-04 22:23 | 49.99612 | 1.05427 | 22995 ft | 376 kts | 155° |
| 2026-05-04 22:24 | 49.97266 | 1.07194 | 22990 ft | 376 kts | 155° |
| 2026-05-04 22:24 | 49.94909 | 1.08969 | 22987 ft | 376 kts | 154° |
| 2026-05-04 22:24 | 49.92547 | 1.10747 | 22986 ft | 377 kts | 154° |
| 2026-05-04 22:24 | 49.90184 | 1.12521 | 22982 ft | 378 kts | 154° |
| 2026-05-04 22:25 | 49.87817 | 1.14296 | 22993 ft | 378 kts | 154° |
| 2026-05-04 22:25 | 49.85460 | 1.16064 | 22553 ft | 376 kts | 154° |
| 2026-05-04 22:25 | 49.83103 | 1.17829 | 21954 ft | 375 kts | 154° |
| 2026-05-04 22:25 | 49.80766 | 1.19574 | 21424 ft | 373 kts | 154° |
| 2026-05-04 22:26 | 49.78435 | 1.21310 | 20911 ft | 370 kts | 154° |
| 2026-05-04 22:26 | 49.76124 | 1.23030 | 20407 ft | 367 kts | 154° |
| 2026-05-04 22:26 | 49.73831 | 1.24741 | 19908 ft | 364 kts | 154° |
| 2026-05-04 22:26 | 49.71583 | 1.26415 | 19428 ft | 361 kts | 154° |
| 2026-05-04 22:27 | 49.69332 | 1.28087 | 18937 ft | 358 kts | 154° |
| 2026-05-04 22:27 | 49.67091 | 1.29747 | 18456 ft | 356 kts | 154° |
| 2026-05-04 22:27 | 49.64839 | 1.31414 | 17977 ft | 352 kts | 154° |
| 2026-05-04 22:27 | 49.62688 | 1.33008 | 17654 ft | 343 kts | 154° |
| 2026-05-04 22:28 | 49.60559 | 1.34584 | 17347 ft | 335 kts | 154° |
| 2026-05-04 22:28 | 49.58472 | 1.36126 | 17036 ft | 330 kts | 154° |
| 2026-05-04 22:28 | 49.56405 | 1.37654 | 16736 ft | 328 kts | 154° |
| 2026-05-04 22:28 | 49.54357 | 1.39170 | 16449 ft | 326 kts | 154° |
| 2026-05-04 22:29 | 49.52318 | 1.40680 | 16148 ft | 324 kts | 154° |
| 2026-05-04 22:29 | 49.50287 | 1.42179 | 15855 ft | 323 kts | 154° |
| 2026-05-04 22:29 | 49.48264 | 1.43668 | 15559 ft | 322 kts | 154° |
| 2026-05-04 22:29 | 49.46244 | 1.45154 | 15257 ft | 320 kts | 154° |
| 2026-05-04 22:30 | 49.44242 | 1.46624 | 14970 ft | 319 kts | 154° |
| 2026-05-04 22:30 | 49.42234 | 1.48097 | 14682 ft | 318 kts | 154° |
| 2026-05-04 22:30 | 49.40240 | 1.49557 | 14393 ft | 316 kts | 154° |
| 2026-05-04 22:30 | 49.38251 | 1.51014 | 14104 ft | 315 kts | 154° |
| 2026-05-04 22:31 | 49.36283 | 1.52456 | 13821 ft | 314 kts | 154° |
| 2026-05-04 22:31 | 49.34337 | 1.53954 | 13509 ft | 312 kts | 148° |
| 2026-05-04 22:31 | 49.32612 | 1.55957 | 13217 ft | 310 kts | 136° |
| 2026-05-04 22:31 | 49.31232 | 1.58481 | 12934 ft | 309 kts | 123° |
| 2026-05-04 22:32 | 49.30250 | 1.61395 | 12753 ft | 308 kts | 111° |
| 2026-05-04 22:32 | 49.29701 | 1.64567 | 12565 ft | 308 kts | 98° |
| 2026-05-04 22:32 | 49.29532 | 1.67843 | 12380 ft | 308 kts | 94° |
| 2026-05-04 22:32 | 49.29326 | 1.71098 | 12190 ft | 306 kts | 101° |
| 2026-05-04 22:33 | 49.28738 | 1.74224 | 12017 ft | 306 kts | 112° |
| 2026-05-04 22:33 | 49.27778 | 1.77131 | 11646 ft | 308 kts | 122° |
| 2026-05-04 22:33 | 49.26461 | 1.79699 | 11203 ft | 307 kts | 133° |
| 2026-05-04 22:33 | 49.24924 | 1.81976 | 10729 ft | 306 kts | 135° |
| 2026-05-04 22:34 | 49.23393 | 1.84219 | 10339 ft | 303 kts | 135° |
| 2026-05-04 22:34 | 49.21894 | 1.86414 | 10163 ft | 293 kts | 135° |
| 2026-05-04 22:34 | 49.20455 | 1.88518 | 9864 ft | 288 kts | 135° |
| 2026-05-04 22:34 | 49.18996 | 1.90650 | 9379 ft | 289 kts | 135° |
| 2026-05-04 22:35 | 49.17540 | 1.92778 | 9002 ft | 285 kts | 135° |
| 2026-05-04 22:35 | 49.16115 | 1.94863 | 8580 ft | 283 kts | 135° |
| 2026-05-04 22:35 | 49.14695 | 1.96942 | 8156 ft | 282 kts | 135° |
| 2026-05-04 22:35 | 49.13286 | 1.99004 | 7728 ft | 280 kts | 135° |
| 2026-05-04 22:36 | 49.11886 | 2.01049 | 7305 ft | 278 kts | 135° |
| 2026-05-04 22:36 | 49.10485 | 2.03090 | 6883 ft | 276 kts | 135° |
| 2026-05-04 22:36 | 49.09103 | 2.05099 | 6464 ft | 275 kts | 135° |
| 2026-05-04 22:36 | 49.07720 | 2.07104 | 5879 ft | 278 kts | 135° |
| 2026-05-04 22:37 | 49.06306 | 2.09156 | 5335 ft | 279 kts | 135° |
| 2026-05-04 22:37 | 49.04929 | 2.11157 | 5136 ft | 267 kts | 135° |
| 2026-05-04 22:37 | 49.03634 | 2.13032 | 5012 ft | 253 kts | 135° |
| 2026-05-04 22:37 | 49.02391 | 2.14832 | 4908 ft | 239 kts | 135° |
| 2026-05-04 22:38 | 49.01257 | 2.16589 | 4797 ft | 227 kts | 124° |
| 2026-05-04 22:38 | 49.00679 | 2.18716 | 4643 ft | 215 kts | 97° |
| 2026-05-04 22:38 | 49.00701 | 2.20976 | 4341 ft | 212 kts | 84° |
| 2026-05-04 22:38 | 49.00840 | 2.23196 | 4123 ft | 206 kts | 83° |
| 2026-05-04 22:39 | 49.00964 | 2.25284 | 3996 ft | 191 kts | 84° |
| 2026-05-04 22:39 | 49.01077 | 2.27258 | 3940 ft | 181 kts | 84° |
| 2026-05-04 22:39 | 49.01178 | 2.29060 | 3941 ft | 162 kts | 84° |
| 2026-05-04 22:39 | 49.01272 | 2.30733 | 3944 ft | 156 kts | 84° |
| 2026-05-04 22:40 | 49.01364 | 2.32372 | 3945 ft | 155 kts | 84° |
| 2026-05-04 22:40 | 49.01459 | 2.34051 | 3568 ft | 164 kts | 83° |
| 2026-05-04 22:40 | 49.01566 | 2.35823 | 3088 ft | 171 kts | 83° |
| 2026-05-04 22:40 | 49.01671 | 2.37647 | 2563 ft | 174 kts | 83° |
| 2026-05-04 22:41 | 49.01778 | 2.39469 | 2172 ft | 172 kts | 83° |
| 2026-05-04 22:41 | 49.01855 | 2.41277 | 1819 ft | 170 kts | 84° |
| 2026-05-04 22:41 | 49.01950 | 2.43052 | 1542 ft | 164 kts | 84° |
| 2026-05-04 22:41 | 49.02020 | 2.44751 | 1287 ft | 157 kts | 84° |
| 2026-05-04 22:42 | 49.02127 | 2.46358 | 1104 ft | 148 kts | 83° |
| 2026-05-04 22:42 | 49.02203 | 2.47906 | 894 ft | 145 kts | 84° |
| 2026-05-04 22:42 | 49.02282 | 2.49425 | 699 ft | 144 kts | 84° |
| 2026-05-04 22:42 | 49.02396 | 2.50934 | 510 ft | 142 kts | 84° |
| 2026-05-04 22:43 | 49.02467 | 2.52438 | 383 ft | 142 kts | 82° |
| 2026-05-04 22:43 | 49.02549 | 2.53867 | 357 ft | 125 kts | 86° |
| 2026-05-04 22:43 | 49.02610 | 2.55044 | 357 ft | 93 kts | 85° |
| 2026-05-04 22:43 | 49.02640 | 2.55661 | 358 ft | 18 kts | 86° |
| 2026-05-04 22:44 | 49.02618 | 2.55822 | 359 ft | 14 kts | 116° |
| 2026-05-04 22:44 | 49.02572 | 2.55914 | 354 ft | 6 kts | 144° |
| 2026-05-04 22:44 | 49.02544 | 2.55933 | 362 ft | 3 kts | 160° |
| 2026-05-04 22:44 | 49.02528 | 2.55940 | 354 ft | 4 kts | 165° |
| 2026-05-04 22:45 | 49.02487 | 2.55948 | 355 ft | 7 kts | 175° |
| 2026-05-04 22:45 | 49.02360 | 2.55960 | 355 ft | 11 kts | 175° |
| 2026-05-04 22:45 | 49.02274 | 2.55971 | 358 ft | 13 kts | 176° |
| 2026-05-04 22:46 | 49.02190 | 2.55981 | 354 ft | 12 kts | 175° |
| 2026-05-04 22:46 | 49.02133 | 2.55990 | 362 ft | 5 kts | 167° |
| 2026-05-04 22:46 | 49.02104 | 2.56022 | 362 ft | 7 kts | 127° |
| 2026-05-04 22:46 | 49.02099 | 2.56131 | 355 ft | 12 kts | 86° |
| 2026-05-04 22:47 | 49.02086 | 2.56265 | 358 ft | 14 kts | 115° |
| 2026-05-04 22:47 | 49.02015 | 2.56329 | 355 ft | 11 kts | 173° |
| 2026-05-04 22:47 | 49.01947 | 2.56367 | 355 ft | 11 kts | 129° |
| 2026-05-04 22:47 | 49.01936 | 2.56487 | 355 ft | 12 kts | 83° |
| 2026-05-04 22:48 | 49.01943 | 2.56625 | 355 ft | 14 kts | 85° |
| 2026-05-04 22:48 | 49.01952 | 2.56777 | 355 ft | 15 kts | 84° |
| 2026-05-04 22:48 | 49.01960 | 2.56943 | 355 ft | 16 kts | 84° |
| 2026-05-04 22:48 | 49.01972 | 2.57124 | 355 ft | 18 kts | 84° |
| 2026-05-04 22:49 | 49.01979 | 2.57302 | 355 ft | 11 kts | 86° |
| 2026-05-04 22:49 | 49.01986 | 2.57426 | 355 ft | 12 kts | 85° |
| 2026-05-04 22:49 | 49.01992 | 2.57563 | 355 ft | 14 kts | 85° |
| 2026-05-04 22:49 | 49.01999 | 2.57715 | 355 ft | 15 kts | 92° |
| 2026-05-04 22:50 | 49.01967 | 2.57870 | 360 ft | 16 kts | 123° |
| 2026-05-04 22:50 | 49.01876 | 2.57971 | 356 ft | 17 kts | 163° |
| 2026-05-04 22:50 | 49.01771 | 2.57994 | 358 ft | 16 kts | 171° |
| 2026-05-04 22:50 | 49.01660 | 2.58007 | 355 ft | 17 kts | 176° |
| 2026-05-04 22:51 | 49.01540 | 2.58022 | 355 ft | 18 kts | 177° |
| 2026-05-04 22:51 | 49.01413 | 2.58038 | 355 ft | 19 kts | 174° |
| 2026-05-04 22:51 | 49.01279 | 2.58055 | 355 ft | 20 kts | 175° |
| 2026-05-04 22:51 | 49.01137 | 2.58072 | 355 ft | 21 kts | 176° |
| 2026-05-04 22:52 | 49.01003 | 2.58088 | 355 ft | 11 kts | 175° |
| 2026-05-04 22:52 | 49.00929 | 2.58079 | 355 ft | 13 kts | 206° |
| 2026-05-04 22:52 | 49.00900 | 2.57945 | 355 ft | 15 kts | 267° |
| 2026-05-04 22:52 | 49.00890 | 2.57777 | 360 ft | 17 kts | 265° |
| 2026-05-04 22:53 | 49.00881 | 2.57595 | 355 ft | 18 kts | 266° |
| 2026-05-04 22:53 | 49.00872 | 2.57401 | 357 ft | 19 kts | 266° |
| 2026-05-04 22:53 | 49.00843 | 2.57210 | 361 ft | 16 kts | 223° |
| 2026-05-04 22:53 | 49.00744 | 2.57195 | 355 ft | 15 kts | 188° |
| 2026-05-04 22:54 | 49.00684 | 2.57080 | 355 ft | 15 kts | 257° |
| 2026-05-04 22:54 | 49.00677 | 2.56978 | 358 ft | 14 kts | 265° |
| 2026-05-04 22:54 | 49.00667 | 2.56820 | 355 ft | 16 kts | 265° |
| 2026-05-04 22:54 | 49.00657 | 2.56648 | 355 ft | 17 kts | 265° |
| 2026-05-04 22:55 | 49.00633 | 2.56534 | 357 ft | 8 kts | 206° |
| 2026-05-04 22:55 | 49.00574 | 2.56531 | 355 ft | 8 kts | 180° |
| 2026-05-04 22:55 | 49.00554 | 2.56531 | 355 ft | 0 kts | 178° |